Meteo Giornale » Osservazioni meteo Italia » Treviso-Istrana

ore: 22:55 - Osservazioni Meteo Treviso-Istrana
Lat. 45° 41' N Lon. 12° 6' E Alt. 45 metri s.l.m.

sereno Europe/Rome

15 °C

Sereno

Temp. 24 Ore

12 °C

22 °C

Nord

7.4 Km/h

Dew point 14 °C

Umidità 93 %

Visibilità  8 Km

Il sole sorge alle ore 07:02

Il sole tramonta alle ore 19:02

Data e Ora Cielo e Fenomeni T °C DP °C Um. % Pres. hPa Vis. km Vento km/h
Oggi h: 22:55 sereno Sereno 15 14 93 1022 8 N 7.4
Oggi h: 21:55 sereno Sereno 16 14 87 1022 8 N 7.4
Oggi h: 20:55 sereno Sereno 17 14 82 1022 10 N 7.4
Oggi h: 19:55 sereno Sereno 17 14 82 1021 10 N 5.5
Oggi h: 18:55 sereno Sereno 19 13 68 1021 10 E/NE 9.3
Oggi h: 17:55 sereno Sereno 21 15 68 1020 10 E/SE 11.1
Oggi h: 16:55 poco_nuvoloso Poco Nuvoloso 22 13 56 1020 10 E 18.5
Oggi h: 15:55 poco_nuvoloso Poco Nuvoloso 22 13 56 1020 10 E 14.8
Oggi h: 14:55 poco_nuvoloso Poco Nuvoloso 22 12 53 1020 10 E/SE 16.7
Oggi h: 13:55 poco_nuvoloso Poco Nuvoloso 22 13 56 1020 10 E 13
Oggi h: 12:55 sereno Sereno 21 12 56 1021 10 E 13
Oggi h: 11:55 sereno Sereno 20 12 59 1021 10 E 14.8
Oggi h: 10:55 sereno Sereno 20 12 59 1021 10 E 9.3
Oggi h: 09:55 sereno Sereno 18 12 67 1021 10 E/NE 9.3
Oggi h: 08:55 sereno Sereno 15 13 87 1021 10 N 7.4
Oggi h: 07:55 sereno Sereno 12 11 93 1020 10 N 7.4
Oggi h: 06:55 sereno Sereno 12 11 93 1020 10 N/NE 7.4
Oggi h: 05:55 sereno Sereno 12 11 93 1020 10 N 9.3
Oggi h: 04:55 sereno Sereno 12 11 93 1020 10 N 7.4
Oggi h: 03:55 sereno Sereno 12 10 87 1020 10 N 5.5
Ieri h: 23:55 nuvoloso Nuvoloso 14 13 93 1021 10 N/NE 9.3